createdAt,value
2022-10-20T00:01:27.764Z,24.30
2022-10-20T00:06:32.309Z,26.45
2022-10-20T00:11:34.788Z,25.42
2022-10-20T00:16:39.179Z,24.75
2022-10-20T00:21:41.399Z,35.03
2022-10-20T00:26:43.855Z,34.67
2022-10-20T00:31:46.113Z,25.70
2022-10-20T00:36:51.177Z,29.02
2022-10-20T00:41:53.878Z,27.55
2022-10-20T00:46:56.551Z,26.95
2022-10-20T00:51:58.876Z,27.93
2022-10-20T00:57:04.115Z,22.45
2022-10-20T01:02:07.646Z,23.00
2022-10-20T01:07:10.004Z,21.27
2022-10-20T01:12:36.811Z,18.08
2022-10-20T01:18:04.589Z,20.23
2022-10-20T01:23:40.167Z,17.15
2022-10-20T01:28:46.659Z,19.08
2022-10-20T01:34:04.218Z,19.38
2022-10-20T01:39:19.395Z,20.70
2022-10-20T01:44:24.787Z,19.92
2022-10-20T01:49:27.358Z,22.90
2022-10-20T01:54:30.311Z,19.70
2022-10-20T01:59:35.550Z,26.87
2022-10-20T02:04:47.867Z,35.95
2022-10-20T02:14:58.182Z,37.78
2022-10-20T02:20:01.577Z,32.17
2022-10-20T02:25:04.296Z,32.85
2022-10-20T02:30:10.012Z,37.47
2022-10-20T02:35:29.429Z,32.15
2022-10-20T02:40:31.809Z,31.85
2022-10-20T02:45:34.034Z,27.73
2022-10-20T02:50:36.783Z,25.48
2022-10-20T02:55:39.147Z,21.33
2022-10-20T03:00:41.323Z,24.75
2022-10-20T03:05:44.617Z,24.52
2022-10-20T03:10:46.857Z,20.02
2022-10-20T03:15:49.096Z,17.00
2022-10-20T03:20:52.802Z,20.13
2022-10-20T03:26:01.743Z,17.95
2022-10-20T03:31:05.734Z,18.13
2022-10-20T03:41:11.145Z,20.85
2022-10-20T03:46:13.545Z,19.40
2022-10-20T03:51:16.139Z,23.05
2022-10-20T03:56:19.927Z,23.23
2022-10-20T04:01:28.181Z,21.92
2022-10-20T04:06:30.537Z,25.58
2022-10-20T04:11:33.169Z,19.42
2022-10-20T04:16:35.557Z,20.42
2022-10-20T04:21:38.054Z,22.85
2022-10-20T04:26:40.294Z,17.20
2022-10-20T04:31:48.106Z,23.70
2022-10-20T04:36:51.328Z,25.67
2022-10-20T04:41:53.581Z,21.50
2022-10-20T04:46:55.851Z,24.10
2022-10-20T04:52:01.022Z,21.10
2022-10-20T04:57:06.105Z,17.58
2022-10-20T05:02:08.435Z,22.70
2022-10-20T05:07:12.748Z,22.98
2022-10-20T05:17:37.313Z,22.60
2022-10-20T05:22:39.658Z,17.98
2022-10-20T05:27:42.182Z,18.80
2022-10-20T05:32:45.754Z,22.13
2022-10-20T05:37:47.975Z,23.80
2022-10-20T05:42:50.462Z,22.13
2022-10-20T05:47:54.839Z,21.40
2022-10-20T05:52:57.770Z,19.35
2022-10-20T05:58:00.027Z,20.67
2022-10-20T06:03:02.309Z,28.77
2022-10-20T06:08:04.860Z,30.92
2022-10-20T06:13:07.156Z,29.48
2022-10-20T06:18:09.462Z,29.13
2022-10-20T06:23:11.770Z,26.25
2022-10-20T06:28:14.097Z,22.55
2022-10-20T06:33:17.037Z,23.95
2022-10-20T06:38:19.397Z,20.13
2022-10-20T06:43:21.770Z,21.58
2022-10-20T06:48:24.460Z,23.65
2022-10-20T06:53:27.470Z,21.33
2022-10-20T06:58:30.223Z,21.52
2022-10-20T07:03:35.190Z,21.20
2022-10-20T07:08:38.470Z,20.10
2022-10-20T07:13:42.309Z,17.48
2022-10-20T07:24:08.345Z,19.07
2022-10-20T07:34:25.754Z,20.67
2022-10-20T07:39:29.516Z,22.20
2022-10-20T07:44:31.715Z,19.58
2022-10-20T07:49:49.229Z,19.20
2022-10-20T07:54:58.679Z,17.05
2022-10-20T08:00:10.635Z,33.95
2022-10-20T08:05:14.131Z,15.43
2022-10-20T08:10:16.418Z,19.60
2022-10-20T08:15:18.872Z,17.65
2022-10-20T08:20:27.639Z,17.53
2022-10-20T08:25:29.861Z,15.52
2022-10-20T08:30:32.360Z,16.17
2022-10-20T08:35:34.699Z,14.25
2022-10-20T08:40:40.061Z,13.48
2022-10-20T08:45:42.294Z,14.05
2022-10-20T08:50:46.993Z,13.10
2022-10-20T08:55:49.480Z,13.80
2022-10-20T09:00:59.856Z,11.52
2022-10-20T09:06:22.305Z,10.88
2022-10-20T09:11:27.770Z,11.27
2022-10-20T09:23:39.889Z,13.60
2022-10-20T09:29:02.038Z,10.93
2022-10-20T09:39:24.287Z,14.60
2022-10-20T09:44:34.246Z,11.45
2022-10-20T09:49:39.017Z,13.75
2022-10-20T09:54:41.264Z,13.00
2022-10-20T09:59:46.623Z,12.50
2022-10-20T10:04:50.876Z,13.90
2022-10-20T10:10:02.483Z,10.70
2022-10-20T10:15:32.652Z,10.25
2022-10-20T10:20:39.213Z,10.73
2022-10-20T10:25:41.495Z,11.02
2022-10-20T10:31:17.200Z,11.65
2022-10-20T10:36:55.158Z,11.02
2022-10-20T10:54:27.359Z,9.52
2022-10-20T10:59:38.103Z,11.23
2022-10-20T11:05:26.884Z,8.43
2022-10-20T11:11:08.198Z,8.77
2022-10-20T11:16:25.321Z,7.43
2022-10-20T11:22:11.848Z,6.05
2022-10-20T11:27:19.791Z,8.02
2022-10-20T11:32:42.558Z,6.10
2022-10-20T11:37:52.703Z,7.88
2022-10-20T11:43:10.342Z,6.50
2022-10-20T11:48:35.492Z,7.80
2022-10-20T11:53:49.725Z,7.93
2022-10-20T11:59:06.076Z,5.95
2022-10-20T12:04:08.308Z,4.65
2022-10-20T12:09:20.683Z,5.18
2022-10-20T12:14:32.240Z,4.87
2022-10-20T12:19:35.504Z,5.15
2022-10-20T12:24:42.799Z,6.70
2022-10-20T12:29:45.089Z,4.63
2022-10-20T12:34:49.266Z,4.25
2022-10-20T12:40:04.622Z,5.32
2022-10-20T12:45:45.676Z,6.15
2022-10-20T12:51:18.749Z,8.00
2022-10-20T12:56:35.960Z,6.03
2022-10-20T13:02:31.726Z,5.15
2022-10-20T13:07:48.964Z,5.60
2022-10-20T13:12:56.116Z,4.55
2022-10-20T13:18:01.634Z,4.22
2022-10-20T13:23:04.624Z,4.85
2022-10-20T13:34:04.851Z,6.53
2022-10-20T13:52:16.054Z,5.78
2022-10-20T13:57:27.545Z,6.70
2022-10-20T14:02:33.459Z,6.90
2022-10-20T14:07:41.141Z,5.38
2022-10-20T14:12:43.386Z,7.70
2022-10-20T14:17:58.965Z,8.48
2022-10-20T14:23:02.435Z,7.18
2022-10-20T14:28:06.769Z,8.07
2022-10-20T14:33:14.981Z,7.38
2022-10-20T14:38:38.960Z,8.10
2022-10-20T14:48:50.363Z,9.13
2022-10-20T14:53:52.776Z,6.82
2022-10-20T14:59:00.288Z,7.90
2022-10-20T15:04:16.834Z,12.23
2022-10-20T15:09:25.944Z,11.20
2022-10-20T15:14:28.448Z,9.43
2022-10-20T15:19:35.705Z,13.07
2022-10-20T15:24:38.894Z,12.75
2022-10-20T15:29:46.600Z,17.23
2022-10-20T15:34:48.809Z,24.42
2022-10-20T15:39:51.036Z,20.95
2022-10-20T15:44:53.269Z,39.83
2022-10-20T15:49:55.570Z,45.35
2022-10-20T15:54:57.870Z,28.70
2022-10-20T16:00:00.275Z,22.83
2022-10-20T16:05:02.757Z,36.13
2022-10-20T16:10:06.490Z,36.70
2022-10-20T16:15:10.367Z,21.77
2022-10-20T16:20:13.398Z,35.13
2022-10-20T16:25:17.877Z,16.92
2022-10-20T16:30:20.051Z,15.57
2022-10-20T16:35:22.754Z,15.13
2022-10-20T16:40:25.033Z,19.98
2022-10-20T16:45:27.837Z,24.42
2022-10-20T16:50:39.785Z,20.15
2022-10-20T16:55:55.011Z,22.02
2022-10-20T17:01:08.927Z,46.25
2022-10-20T17:06:12.302Z,58.58
2022-10-20T17:11:17.572Z,41.67
2022-10-20T17:16:26.131Z,41.20
2022-10-20T17:21:32.732Z,37.00
2022-10-20T17:26:35.229Z,35.97
2022-10-20T17:31:38.153Z,45.20
2022-10-20T17:36:40.755Z,53.20
2022-10-20T17:41:43.219Z,44.95
2022-10-20T17:46:45.860Z,46.60
2022-10-20T17:51:48.210Z,47.28
2022-10-20T17:56:52.667Z,42.15
2022-10-20T18:02:04.673Z,47.75
2022-10-20T18:07:08.094Z,49.10
2022-10-20T18:12:10.710Z,35.88
2022-10-20T18:17:14.289Z,30.20
2022-10-20T18:22:16.623Z,23.63
2022-10-20T18:27:18.934Z,24.75
2022-10-20T18:32:30.005Z,22.27
2022-10-20T18:37:32.875Z,34.42
2022-10-20T18:42:35.149Z,34.10
2022-10-20T18:47:37.671Z,25.40
2022-10-20T18:52:55.478Z,24.50
2022-10-20T18:57:58.682Z,22.52
2022-10-20T19:08:45.984Z,19.15
2022-10-20T19:13:48.692Z,18.52
2022-10-20T19:18:53.496Z,19.30
2022-10-20T19:24:01.466Z,19.77
2022-10-20T19:29:12.672Z,18.08
2022-10-20T19:34:20.067Z,16.88
2022-10-20T19:39:34.255Z,21.27
2022-10-20T19:44:40.273Z,22.40
2022-10-20T19:49:57.629Z,18.05
2022-10-20T19:55:02.774Z,19.23
2022-10-20T20:01:23.182Z,19.80
2022-10-20T20:07:02.582Z,19.25
2022-10-20T20:12:40.968Z,24.00
2022-10-20T20:24:01.606Z,23.52
2022-10-20T20:29:05.096Z,22.95
2022-10-20T20:34:19.234Z,25.27
2022-10-20T20:39:52.431Z,23.30
2022-10-20T20:45:30.817Z,22.30
2022-10-20T20:50:33.205Z,25.67
2022-10-20T20:56:37.714Z,21.77
2022-10-20T21:01:47.114Z,25.33
2022-10-20T21:07:01.747Z,24.90
2022-10-20T21:12:06.090Z,27.85
2022-10-20T21:17:28.026Z,27.57
2022-10-20T21:22:30.456Z,25.55
2022-10-20T21:27:32.636Z,28.90
2022-10-20T21:32:35.188Z,27.30
2022-10-20T21:37:37.570Z,26.83
2022-10-20T21:42:40.276Z,32.80
2022-10-20T21:47:43.987Z,27.38
2022-10-20T21:52:49.644Z,30.25
2022-10-20T21:57:51.813Z,27.20
2022-10-20T22:02:54.047Z,31.38
2022-10-20T22:07:56.279Z,32.40
2022-10-20T22:12:58.515Z,26.83
2022-10-20T22:18:00.715Z,26.38
2022-10-20T22:23:04.236Z,26.95
2022-10-20T22:28:06.619Z,27.45
2022-10-20T22:33:08.899Z,28.75
2022-10-20T22:38:11.869Z,31.02
2022-10-20T22:43:14.135Z,24.67
2022-10-20T22:48:17.117Z,28.92
2022-10-20T22:53:19.515Z,26.50
2022-10-20T22:58:22.986Z,27.42
2022-10-20T23:03:25.216Z,27.98
2022-10-20T23:08:31.957Z,28.38
2022-10-20T23:13:35.156Z,25.98
2022-10-20T23:18:37.611Z,28.60
2022-10-20T23:23:39.998Z,23.33
2022-10-20T23:28:42.177Z,23.13
2022-10-20T23:33:47.127Z,26.27
2022-10-20T23:38:50.189Z,31.17
2022-10-20T23:43:52.379Z,33.03
2022-10-20T23:48:55.182Z,29.33
2022-10-20T23:53:57.491Z,19.27
2022-10-20T23:58:59.742Z,19.85
